Time;durP1;ratioP1;P1;durP2;ratioP2;P2;SDS_P1;SDS_P2;PMS_P1;PMS_P2;Temp;Humidity;BMP_temperature;BMP_pressure;BME280_temperature;BME280_humidity;BME280_pressure;Samples;Min_cycle;Max_cycle;Signal;HPM_P1;HPM_P2
2023/04/17 00:02:17;;;;;;;32.37;23.23;;;12.00;99.90;;;;;;4946563;28;20206;-34
2023/04/17 00:04:46;;;;;;;28.80;22.17;;;12.10;99.90;;;;;;4944103;28;20192;-33
2023/04/17 00:07:15;;;;;;;32.63;23.53;;;12.00;99.90;;;;;;4946024;28;20247;-33
2023/04/17 00:09:42;;;;;;;31.50;22.30;;;12.10;99.90;;;;;;4945598;29;20254;-33
2023/04/17 00:12:14;;;;;;;33.33;23.00;;;12.10;99.90;;;;;;4943144;28;20214;-33
2023/04/17 00:14:42;;;;;;;32.43;22.83;;;12.10;99.90;;;;;;4945481;28;20303;-33
2023/04/17 00:17:13;;;;;;;33.43;22.97;;;12.10;99.90;;;;;;4945539;28;20227;-33
2023/04/17 00:19:43;;;;;;;34.60;23.30;;;12.10;99.90;;;;;;4945791;29;20219;-33
2023/04/17 00:22:15;;;;;;;30.03;22.70;;;12.10;99.90;;;;;;4944535;29;20302;-33
2023/04/17 00:24:46;;;;;;;33.90;24.87;;;12.00;99.90;;;;;;4946244;29;20235;-33
2023/04/17 00:27:16;;;;;;;32.90;23.67;;;12.00;99.90;;;;;;4957945;28;20311;-33
2023/04/17 00:29:45;;;;;;;33.67;24.03;;;12.00;99.90;;;;;;4944227;28;20306;-33
2023/04/17 00:32:15;;;;;;;32.60;23.27;;;12.00;99.90;;;;;;4951792;28;20294;-33
2023/04/17 00:34:42;;;;;;;37.13;23.80;;;12.00;99.90;;;;;;4946050;28;20230;-33
2023/04/17 00:37:11;;;;;;;29.63;21.90;;;12.00;99.90;;;;;;4975751;28;20649;-33
2023/04/17 00:39:41;;;;;;;31.70;22.70;;;12.00;99.90;;;;;;4930829;28;20623;-33
2023/04/17 00:42:08;;;;;;;33.80;22.87;;;12.00;99.90;;;;;;4942914;28;20303;-33
2023/04/17 00:44:38;;;;;;;33.90;22.53;;;12.00;99.90;;;;;;4945961;28;20223;-33
2023/04/17 00:47:07;;;;;;;33.30;22.67;;;12.00;99.90;;;;;;4945164;28;20863;-33
2023/04/17 00:49:35;;;;;;;32.43;23.43;;;12.00;99.90;;;;;;4946157;28;20787;-33
2023/04/17 00:52:07;;;;;;;33.50;22.97;;;12.00;99.90;;;;;;4945737;28;20290;-33
2023/04/17 00:54:34;;;;;;;37.80;24.97;;;12.00;99.90;;;;;;4960528;28;20674;-33
2023/04/17 00:57:02;;;;;;;29.63;21.90;;;12.00;99.90;;;;;;4976208;28;20302;-33
2023/04/17 00:59:35;;;;;;;31.90;23.67;;;12.00;99.90;;;;;;4940913;29;20603;-33
2023/04/17 01:02:04;;;;;;;32.60;22.40;;;12.00;99.90;;;;;;4936935;28;20204;-33
2023/04/17 01:04:34;;;;;;;33.90;24.03;;;12.00;99.90;;;;;;4976228;28;20311;-33
2023/04/17 01:07:04;;;;;;;31.87;21.87;;;12.00;99.90;;;;;;4944817;29;20259;-33
2023/04/17 01:09:34;;;;;;;33.10;22.83;;;12.00;99.90;;;;;;4974918;28;20207;-33
2023/04/17 01:12:24;;;;;;;33.10;22.40;;;12.00;99.90;;;;;;4943745;28;20633;-33
2023/04/17 01:14:52;;;;;;;33.90;23.67;;;12.00;99.90;;;;;;4956387;28;20212;-33
2023/04/17 01:17:24;;;;;;;36.83;23.73;;;12.00;99.90;;;;;;4960535;28;20227;-33
2023/04/17 01:19:52;;;;;;;33.83;22.87;;;12.00;99.90;;;;;;4943607;29;20206;-33
2023/04/17 01:22:20;;;;;;;34.83;24.13;;;12.00;99.90;;;;;;4945505;28;20270;-33
2023/04/17 01:24:52;;;;;;;34.17;22.53;;;12.00;99.90;;;;;;4944366;28;20204;-33
2023/04/17 01:27:21;;;;;;;36.00;23.57;;;12.00;99.90;;;;;;4937439;28;20303;-33
2023/04/17 01:29:48;;;;;;;33.57;23.43;;;12.00;99.90;;;;;;4945288;28;20693;-33
2023/04/17 01:32:17;;;;;;;35.83;24.23;;;12.00;99.90;;;;;;4944348;28;20235;-34
2023/04/17 01:34:45;;;;;;;34.93;24.23;;;12.00;99.90;;;;;;4945674;28;20299;-34
2023/04/17 01:37:14;;;;;;;35.27;24.00;;;12.00;99.90;;;;;;4945991;28;20617;-33
2023/04/17 01:39:43;;;;;;;34.47;23.10;;;12.00;99.90;;;;;;4944649;28;20318;-34
2023/04/17 01:42:13;;;;;;;34.13;23.60;;;12.00;99.90;;;;;;4938272;29;20303;-33
2023/04/17 01:44:43;;;;;;;36.47;24.97;;;12.00;99.90;;;;;;4936999;29;20204;-33
2023/04/17 01:47:12;;;;;;;38.53;24.40;;;12.00;99.90;;;;;;4959601;28;20649;-33
2023/04/17 01:49:42;;;;;;;33.47;23.43;;;12.00;99.90;;;;;;4944950;28;20287;-33
2023/04/17 01:52:09;;;;;;;35.03;23.70;;;12.00;99.90;;;;;;4944816;28;20203;-33
2023/04/17 01:54:38;;;;;;;33.83;23.63;;;12.00;99.90;;;;;;4944070;28;21433;-33
2023/04/17 01:57:10;;;;;;;34.50;24.87;;;12.00;99.90;;;;;;4945661;28;20331;-34
2023/04/17 01:59:39;;;;;;;38.20;25.37;;;12.00;99.90;;;;;;4942176;28;20235;-33
2023/04/17 02:02:08;;;;;;;36.50;24.90;;;12.00;99.90;;;;;;4943266;28;20704;-33
2023/04/17 02:04:38;;;;;;;36.93;25.50;;;12.00;99.90;;;;;;4945579;28;20700;-33
2023/04/17 02:07:08;;;;;;;40.93;25.50;;;12.00;99.90;;;;;;4954175;28;20207;-33
2023/04/17 02:09:38;;;;;;;42.73;24.30;;;11.90;99.90;;;;;;4948769;28;20203;-33
2023/04/17 02:12:05;;;;;;;42.43;25.97;;;11.90;99.90;;;;;;4946461;28;20287;-33
2023/04/17 02:14:35;;;;;;;35.97;24.63;;;11.90;99.90;;;;;;4947520;28;20386;-33
2023/04/17 02:17:02;;;;;;;33.83;24.20;;;11.90;99.90;;;;;;4946207;29;20728;-33
2023/04/17 02:19:32;;;;;;;37.27;25.70;;;11.90;99.90;;;;;;4948112;28;20263;-33
2023/04/17 02:22:04;;;;;;;37.33;25.73;;;11.90;99.90;;;;;;4934061;28;20223;-33
2023/04/17 02:24:31;;;;;;;36.87;26.00;;;11.90;99.90;;;;;;4948837;28;20306;-34
2023/04/17 02:26:59;;;;;;;36.10;24.97;;;11.90;99.90;;;;;;4946489;28;20236;-34
2023/04/17 02:29:26;;;;;;;40.40;26.77;;;11.90;99.90;;;;;;4946620;28;20204;-33
2023/04/17 02:31:53;;;;;;;36.77;25.10;;;11.90;99.90;;;;;;4948133;28;20314;-34
2023/04/17 02:34:22;;;;;;;36.33;24.90;;;11.90;99.90;;;;;;4943878;28;20685;-33
2023/04/17 02:36:49;;;;;;;40.50;26.60;;;11.90;99.90;;;;;;4948354;28;20659;-33
2023/04/17 02:39:17;;;;;;;40.87;25.80;;;11.90;99.90;;;;;;4948890;28;20234;-33
2023/04/17 02:41:48;;;;;;;38.40;26.23;;;11.90;99.90;;;;;;4947066;28;20230;-33
2023/04/17 02:44:15;;;;;;;48.37;30.20;;;11.90;99.90;;;;;;4946273;28;20214;-33
2023/04/17 02:46:45;;;;;;;47.10;28.97;;;11.90;99.90;;;;;;4946432;28;20300;-33
2023/04/17 02:49:17;;;;;;;41.90;28.57;;;11.90;99.90;;;;;;4947253;28;20253;-33
2023/04/17 02:51:51;;;;;;;50.57;30.40;;;11.90;99.90;;;;;;4947598;28;20310;-33
2023/04/17 02:54:22;;;;;;;40.80;28.23;;;11.90;99.90;;;;;;4947622;28;20314;-33
2023/04/17 02:56:52;;;;;;;44.47;29.10;;;11.90;99.90;;;;;;4945022;28;20229;-33
2023/04/17 02:59:25;;;;;;;44.07;28.27;;;11.80;99.90;;;;;;4946572;28;20273;-33
2023/04/17 03:01:52;;;;;;;43.20;29.60;;;11.80;99.90;;;;;;4962762;28;20563;-33
2023/04/17 03:04:21;;;;;;;44.27;28.07;;;11.80;99.90;;;;;;4946860;29;20231;-33
2023/04/17 03:06:51;;;;;;;44.93;28.50;;;11.80;99.90;;;;;;4948351;28;20777;-32
2023/04/17 03:09:21;;;;;;;43.03;29.07;;;11.80;99.90;;;;;;4947302;28;20717;-31
2023/04/17 03:11:50;;;;;;;42.87;27.77;;;11.80;99.90;;;;;;4947182;28;20621;-34
2023/04/17 03:14:20;;;;;;;45.17;28.37;;;11.80;99.90;;;;;;4956513;28;20208;-31
2023/04/17 03:16:54;;;;;;;47.07;29.63;;;11.80;99.90;;;;;;4948187;28;20759;-31
2023/04/17 03:19:21;;;;;;;48.17;29.93;;;11.80;99.90;;;;;;4948143;28;20329;-31
2023/04/17 03:21:51;;;;;;;47.73;30.20;;;11.80;99.90;;;;;;4948220;28;20634;-32
2023/04/17 03:24:20;;;;;;;45.20;28.67;;;11.80;99.90;;;;;;4947336;28;20475;-33
2023/04/17 03:26:50;;;;;;;44.00;29.77;;;11.80;99.90;;;;;;4933602;29;20192;-32
2023/04/17 03:29:17;;;;;;;49.67;31.17;;;11.70;99.90;;;;;;4961799;28;20751;-33
2023/04/17 03:31:44;;;;;;;50.10;31.00;;;11.80;99.90;;;;;;4946310;28;20212;-32
2023/04/17 03:34:17;;;;;;;47.47;29.67;;;11.70;99.90;;;;;;4945812;29;20323;-33
2023/04/17 03:36:51;;;;;;;46.67;29.87;;;11.70;99.90;;;;;;4943907;28;20216;-33
2023/04/17 03:39:19;;;;;;;47.63;30.50;;;11.70;99.90;;;;;;4947601;29;20274;-33
2023/04/17 03:41:51;;;;;;;46.73;30.40;;;11.70;99.90;;;;;;4946295;28;20223;-33
2023/04/17 03:44:20;;;;;;;51.03;31.47;;;11.70;99.90;;;;;;4945116;29;20246;-33
2023/04/17 03:46:47;;;;;;;49.47;31.20;;;11.70;99.90;;;;;;4957800;28;20286;-34
2023/04/17 03:49:21;;;;;;;48.47;30.83;;;11.70;99.90;;;;;;4946419;28;20603;-33
2023/04/17 03:51:51;;;;;;;43.87;29.27;;;11.70;99.90;;;;;;4946026;28;20214;-33
2023/04/17 03:54:19;;;;;;;46.63;30.47;;;11.70;99.90;;;;;;4935671;28;20212;-33
2023/04/17 03:56:47;;;;;;;46.10;31.13;;;11.60;99.90;;;;;;4939273;28;20221;-33
2023/04/17 03:59:15;;;;;;;46.33;29.33;;;11.60;99.90;;;;;;4945239;28;20240;-33
2023/04/17 04:01:43;;;;;;;45.27;29.60;;;11.60;99.90;;;;;;4943335;28;20288;-33
2023/04/17 04:04:12;;;;;;;42.07;29.17;;;11.60;99.90;;;;;;4947035;28;20270;-33
2023/04/17 04:06:41;;;;;;;42.60;28.87;;;11.60;99.90;;;;;;4945599;28;20216;-33
2023/04/17 04:09:10;;;;;;;43.40;28.43;;;11.60;99.90;;;;;;4946618;28;20266;-33
2023/04/17 04:11:38;;;;;;;39.97;27.50;;;11.60;99.90;;;;;;4944844;28;20673;-33
2023/04/17 04:14:07;;;;;;;41.77;26.97;;;11.60;99.90;;;;;;4947066;28;20562;-33
2023/04/17 04:16:34;;;;;;;43.00;29.50;;;11.60;99.90;;;;;;4946338;28;20318;-33
2023/04/17 04:19:05;;;;;;;38.87;28.43;;;11.60;99.90;;;;;;4945411;28;20247;-33
2023/04/17 04:21:37;;;;;;;42.00;27.10;;;11.60;99.90;;;;;;4960266;28;20206;-33
2023/04/17 04:24:07;;;;;;;44.57;28.77;;;11.60;99.90;;;;;;4943474;29;20207;-33
2023/04/17 04:26:39;;;;;;;41.43;28.03;;;11.60;99.90;;;;;;4944649;28;20318;-33
2023/04/17 04:29:07;;;;;;;44.90;28.43;;;11.60;99.90;;;;;;4946336;28;20615;-33
2023/04/17 04:31:37;;;;;;;41.70;27.83;;;11.60;99.90;;;;;;4945902;28;20204;-33
2023/04/17 04:34:05;;;;;;;46.70;31.00;;;11.60;99.90;;;;;;4946184;28;20228;-33
2023/04/17 04:36:40;;;;;;;44.10;29.37;;;11.60;99.90;;;;;;4945572;29;20230;-33
2023/04/17 04:39:08;;;;;;;43.63;28.63;;;11.60;99.90;;;;;;4946258;28;20697;-33
2023/04/17 04:41:37;;;;;;;42.50;29.17;;;11.60;99.90;;;;;;4944552;28;20229;-33
2023/04/17 04:44:06;;;;;;;50.17;31.37;;;11.60;99.90;;;;;;4939393;28;20208;-33
2023/04/17 04:46:35;;;;;;;44.03;30.13;;;11.60;99.90;;;;;;4950034;28;20207;-33
2023/04/17 04:49:05;;;;;;;40.27;27.57;;;11.60;99.90;;;;;;4945625;28;20215;-32
2023/04/17 04:51:34;;;;;;;39.60;27.83;;;11.60;99.90;;;;;;4945895;28;20261;-32
2023/04/17 04:54:04;;;;;;;41.87;27.50;;;11.60;99.90;;;;;;4975375;28;20218;-32
2023/04/17 04:56:31;;;;;;;35.67;25.03;;;11.60;99.90;;;;;;4944922;28;20210;-32
2023/04/17 04:59:01;;;;;;;42.37;28.07;;;11.60;99.90;;;;;;4944939;29;20227;-33
2023/04/17 05:01:31;;;;;;;36.27;25.17;;;11.50;99.90;;;;;;4942702;28;20219;-33
2023/04/17 05:04:00;;;;;;;34.20;24.80;;;11.50;99.90;;;;;;4948375;28;20369;-33
2023/04/17 05:06:28;;;;;;;38.43;24.40;;;11.50;99.90;;;;;;4942829;28;20218;-33
2023/04/17 05:09:00;;;;;;;31.50;23.33;;;11.50;99.90;;;;;;4941490;28;20294;-33
2023/04/17 05:11:28;;;;;;;33.40;22.73;;;11.50;99.90;;;;;;4956654;28;20211;-33
2023/04/17 05:13:55;;;;;;;36.03;24.27;;;11.50;99.90;;;;;;4976406;28;20255;-33
2023/04/17 05:16:29;;;;;;;30.73;21.87;;;11.40;99.90;;;;;;4944752;28;20673;-33
2023/04/17 05:18:57;;;;;;;33.70;22.40;;;11.40;99.90;;;;;;4975636;28;20242;-33
2023/04/17 05:21:27;;;;;;;29.80;21.30;;;11.40;99.90;;;;;;4944543;29;20731;-33
2023/04/17 05:23:58;;;;;;;31.63;21.87;;;11.40;99.90;;;;;;4945724;29;20227;-33
2023/04/17 05:26:27;;;;;;;32.93;23.03;;;11.40;99.90;;;;;;4928133;28;20210;-33
2023/04/17 05:28:56;;;;;;;35.70;24.57;;;11.40;99.90;;;;;;4942972;28;20314;-33
2023/04/17 05:31:26;;;;;;;33.60;24.40;;;11.40;99.90;;;;;;4941408;28;20219;-33
2023/04/17 05:33:53;;;;;;;35.60;24.07;;;11.40;99.90;;;;;;4946032;28;20282;-33
2023/04/17 05:36:23;;;;;;;32.03;23.90;;;11.40;99.90;;;;;;4945493;28;20235;-33
2023/04/17 05:38:50;;;;;;;33.37;24.23;;;11.40;99.90;;;;;;4945783;28;20692;-33
2023/04/17 05:41:17;;;;;;;33.27;23.30;;;11.40;99.90;;;;;;4944348;28;20239;-33
2023/04/17 05:43:46;;;;;;;36.27;23.67;;;11.40;99.90;;;;;;4944294;28;20586;-33
2023/04/17 05:46:14;;;;;;;35.73;23.77;;;11.40;99.90;;;;;;4946570;28;20306;-33
2023/04/17 05:48:42;;;;;;;35.43;24.60;;;11.40;99.90;;;;;;4947797;28;20788;-33
2023/04/17 05:51:12;;;;;;;38.20;26.80;;;11.40;99.90;;;;;;4945101;28;20211;-33
2023/04/17 05:53:39;;;;;;;35.03;23.53;;;11.40;99.90;;;;;;4954020;28;20303;-33
2023/04/17 05:56:09;;;;;;;37.47;25.43;;;11.40;99.90;;;;;;4945254;28;20285;-33
2023/04/17 05:58:39;;;;;;;35.43;24.63;;;11.50;99.90;;;;;;4947251;28;20220;-33
2023/04/17 06:01:17;;;;;;;36.80;24.80;;;11.50;99.90;;;;;;4941784;28;20330;-33
2023/04/17 06:03:47;;;;;;;37.33;26.60;;;11.40;99.90;;;;;;4945829;28;20318;-33
2023/04/17 06:06:14;;;;;;;34.33;24.80;;;11.40;99.90;;;;;;4946313;28;20243;-34
2023/04/17 06:08:46;;;;;;;38.00;26.30;;;11.40;99.90;;;;;;4948120;28;20591;-34
2023/04/17 06:11:16;;;;;;;39.00;26.13;;;11.40;99.90;;;;;;4945797;28;20231;-33
2023/04/17 06:13:43;;;;;;;37.60;25.80;;;11.40;99.90;;;;;;4948415;28;20315;-33
2023/04/17 06:16:13;;;;;;;34.00;24.83;;;11.40;99.90;;;;;;4933446;28;20279;-34
2023/04/17 06:18:40;;;;;;;35.53;24.43;;;11.40;99.90;;;;;;4940860;29;20219;-33
2023/04/17 06:21:10;;;;;;;35.70;24.97;;;11.50;99.90;;;;;;4943661;28;20223;-33
2023/04/17 06:23:41;;;;;;;32.63;24.20;;;11.50;99.90;;;;;;4945526;28;20212;-34
2023/04/17 06:26:13;;;;;;;34.17;23.83;;;11.50;99.90;;;;;;4947032;28;20207;-32
2023/04/17 06:28:43;;;;;;;37.37;23.73;;;11.50;99.90;;;;;;4945344;28;20322;-32
2023/04/17 06:31:12;;;;;;;32.30;23.63;;;11.40;99.90;;;;;;4943554;28;20208;-33
2023/04/17 06:33:40;;;;;;;35.63;25.53;;;11.40;99.90;;;;;;4938852;28;20664;-32
2023/04/17 06:36:11;;;;;;;33.07;23.20;;;11.40;99.90;;;;;;4942212;28;20223;-33
2023/04/17 06:38:43;;;;;;;35.93;22.73;;;11.40;99.90;;;;;;4939024;28;20561;-33
2023/04/17 06:41:13;;;;;;;33.43;23.70;;;11.40;99.90;;;;;;4957979;28;20208;-33
2023/04/17 06:43:40;;;;;;;34.30;22.73;;;11.40;99.90;;;;;;4946418;28;20300;-33
2023/04/17 06:46:07;;;;;;;32.90;21.53;;;11.40;99.90;;;;;;4945894;29;20702;-33
2023/04/17 06:48:37;;;;;;;31.30;21.03;;;11.40;99.90;;;;;;4946890;29;20688;-33
2023/04/17 06:51:07;;;;;;;33.03;22.07;;;11.40;99.90;;;;;;4942934;28;20210;-33
2023/04/17 06:53:34;;;;;;;29.93;21.40;;;11.40;99.90;;;;;;4939409;28;20312;-33
2023/04/17 06:56:04;;;;;;;29.43;20.87;;;11.40;99.90;;;;;;4933225;28;20606;-33
2023/04/17 06:58:42;;;;;;;29.53;21.40;;;11.30;99.90;;;;;;4944334;28;20226;-32
2023/04/17 07:01:13;;;;;;;31.73;21.43;;;11.30;99.90;;;;;;4946167;28;20429;-32
2023/04/17 07:03:41;;;;;;;32.77;21.77;;;11.30;99.90;;;;;;4946787;28;20637;-32
2023/04/17 07:06:09;;;;;;;34.53;22.00;;;11.30;99.90;;;;;;4944038;28;20223;-32
2023/04/17 07:08:36;;;;;;;35.47;23.07;;;11.30;99.90;;;;;;4974070;28;20623;-32
2023/04/17 07:11:06;;;;;;;37.13;22.90;;;11.30;99.90;;;;;;4943464;28;20215;-32
2023/04/17 07:13:36;;;;;;;32.13;22.00;;;11.40;99.90;;;;;;4941998;28;20298;-32
2023/04/17 07:16:04;;;;;;;29.90;20.43;;;11.30;99.90;;;;;;4951723;28;20207;-32
2023/04/17 07:18:34;;;;;;;32.30;20.90;;;11.30;99.90;;;;;;4956911;28;20295;-39
2023/04/17 07:21:04;;;;;;;29.13;20.20;;;11.40;99.90;;;;;;4944331;28;20208;-39
2023/04/17 07:23:31;;;;;;;29.60;21.13;;;11.30;99.90;;;;;;4972343;28;20203;-39
2023/04/17 07:26:01;;;;;;;29.60;19.73;;;11.40;99.90;;;;;;4943350;28;20569;-38
2023/04/17 07:28:30;;;;;;;26.10;19.27;;;11.40;99.90;;;;;;4955463;28;20196;-39
2023/04/17 07:30:57;;;;;;;26.87;19.60;;;11.40;99.90;;;;;;4940392;28;20224;-38
2023/04/17 07:33:26;;;;;;;29.97;21.20;;;11.50;99.90;;;;;;4942281;28;20542;-39
2023/04/17 07:35:56;;;;;;;30.63;21.97;;;11.50;99.90;;;;;;4977005;28;20242;-39
2023/04/17 07:38:26;;;;;;;32.47;22.63;;;11.50;99.90;;;;;;4944168;28;20298;-39
2023/04/17 07:40:53;;;;;;;30.73;21.60;;;11.50;99.90;;;;;;4940962;28;20661;-39
2023/04/17 07:43:22;;;;;;;32.37;22.63;;;11.50;99.90;;;;;;4944066;28;20223;-39
2023/04/17 07:45:49;;;;;;;30.10;21.50;;;11.50;99.90;;;;;;4941451;28;20223;-39
2023/04/17 07:48:23;;;;;;;32.60;21.83;;;11.50;99.90;;;;;;4945072;29;20227;-39
2023/04/17 07:50:52;;;;;;;34.23;23.80;;;11.50;99.90;;;;;;4944819;28;20239;-39
2023/04/17 07:53:24;;;;;;;35.17;22.70;;;11.60;99.90;;;;;;4942842;28;20222;-39
2023/04/17 07:55:57;;;;;;;35.17;24.00;;;11.50;99.90;;;;;;4944083;29;20214;-39
2023/04/17 07:58:25;;;;;;;29.70;21.50;;;11.50;99.90;;;;;;4960709;28;20208;-39
2023/04/17 08:00:56;;;;;;;33.50;23.00;;;11.50;99.90;;;;;;4945103;28;20777;-39
2023/04/17 08:03:28;;;;;;;36.87;24.03;;;11.60;99.90;;;;;;4946673;28;20262;-39
2023/04/17 08:06:00;;;;;;;35.00;24.17;;;11.60;99.90;;;;;;4943063;28;20219;-39
2023/04/17 08:08:28;;;;;;;31.87;23.20;;;11.60;99.90;;;;;;4944444;29;20211;-39
2023/04/17 08:10:57;;;;;;;34.13;22.60;;;11.60;99.90;;;;;;4940620;29;20358;-39
2023/04/17 08:13:25;;;;;;;34.57;23.27;;;11.60;99.90;;;;;;4944940;29;20669;-39
2023/04/17 08:16:00;;;;;;;34.10;24.17;;;11.70;99.90;;;;;;4943472;28;20211;-39
2023/04/17 08:18:31;;;;;;;35.90;24.37;;;11.70;99.90;;;;;;4959924;28;20234;-39
2023/04/17 08:21:03;;;;;;;35.33;25.77;;;11.70;99.90;;;;;;4959541;28;21025;-39
2023/04/17 08:23:34;;;;;;;32.83;23.30;;;11.80;99.90;;;;;;4945151;28;20614;-39
2023/04/17 08:26:04;;;;;;;37.40;25.07;;;11.70;99.90;;;;;;4944015;28;20812;-39
2023/04/17 08:28:35;;;;;;;32.87;23.73;;;11.80;99.90;;;;;;4945291;28;20572;-39
2023/04/17 08:31:07;;;;;;;33.43;24.07;;;11.80;99.90;;;;;;4958586;28;20211;-39
2023/04/17 08:33:34;;;;;;;34.93;23.53;;;11.80;99.90;;;;;;4943888;28;20215;-39
2023/04/17 08:36:04;;;;;;;43.20;26.23;;;11.80;99.90;;;;;;4944718;28;20208;-39
2023/04/17 08:38:37;;;;;;;33.23;23.27;;;11.80;99.90;;;;;;4939487;28;20207;-39
2023/04/17 08:41:08;;;;;;;36.50;24.80;;;11.80;99.90;;;;;;4927187;28;20820;-39
2023/04/17 08:43:36;;;;;;;37.13;24.53;;;11.80;99.90;;;;;;4943465;29;20250;-32
2023/04/17 08:46:03;;;;;;;32.20;24.43;;;11.80;99.90;;;;;;4944619;28;20691;-32
2023/04/17 08:48:33;;;;;;;34.90;24.43;;;11.80;99.90;;;;;;4931966;29;20735;-32
2023/04/17 08:51:03;;;;;;;32.83;23.30;;;11.80;99.90;;;;;;4945414;28;20677;-32
2023/04/17 08:53:33;;;;;;;35.67;24.30;;;11.90;99.90;;;;;;4943950;28;20608;-32
2023/04/17 08:56:04;;;;;;;37.87;24.70;;;11.90;99.90;;;;;;4941926;29;20208;-32
2023/04/17 08:58:35;;;;;;;38.43;27.23;;;11.90;99.90;;;;;;4941791;28;20674;-33
2023/04/17 09:01:09;;;;;;;35.77;25.20;;;11.90;99.90;;;;;;4943967;28;20530;-33
2023/04/17 09:03:44;;;;;;;36.43;25.73;;;11.90;99.90;;;;;;4942783;28;20333;-33
2023/04/17 09:06:15;;;;;;;35.23;24.70;;;12.00;99.90;;;;;;4943496;28;20580;-33
2023/04/17 09:08:58;;;;;;;38.90;26.73;;;12.00;99.90;;;;;;4943870;28;20219;-33
2023/04/17 09:11:32;;;;;;;33.43;24.17;;;12.00;99.90;;;;;;4943624;28;20207;-33
2023/04/17 09:14:00;;;;;;;32.87;24.40;;;12.00;99.90;;;;;;4943412;28;20299;-33
2023/04/17 09:16:27;;;;;;;35.67;25.03;;;12.00;99.90;;;;;;4958911;28;20674;-33
2023/04/17 09:19:07;;;;;;;36.40;25.40;;;12.00;99.90;;;;;;4948698;28;20219;-33
2023/04/17 09:21:39;;;;;;;34.37;24.83;;;12.10;99.90;;;;;;4942845;28;20612;-33
2023/04/17 09:24:08;;;;;;;33.47;25.37;;;12.00;99.90;;;;;;4953250;28;20317;-33
2023/04/17 09:26:38;;;;;;;32.67;23.77;;;12.00;99.90;;;;;;4976468;28;20681;-33
2023/04/17 09:29:10;;;;;;;36.20;24.73;;;12.10;99.90;;;;;;4946681;29;20362;-34
2023/04/17 09:31:41;;;;;;;35.33;24.63;;;12.10;99.90;;;;;;4945760;28;20211;-33
2023/04/17 09:34:10;;;;;;;32.47;23.87;;;12.10;99.90;;;;;;4960578;28;20771;-33
2023/04/17 09:36:42;;;;;;;35.80;24.30;;;12.10;99.90;;;;;;4977729;28;20251;-34
2023/04/17 09:39:19;;;;;;;32.03;23.83;;;12.10;99.90;;;;;;4944560;28;20211;-33
2023/04/17 09:41:47;;;;;;;31.77;24.17;;;12.10;99.90;;;;;;4942839;29;20682;-33
2023/04/17 09:44:29;;;;;;;33.87;24.13;;;12.10;99.90;;;;;;4931300;28;20211;-33
2023/04/17 09:46:59;;;;;;;32.17;24.70;;;12.10;99.90;;;;;;4929709;29;20239;-33
2023/04/17 09:49:41;;;;;;;32.63;23.60;;;12.20;99.90;;;;;;4943337;29;20229;-34
2023/04/17 09:52:14;;;;;;;37.47;26.10;;;12.20;99.90;;;;;;4947646;28;20719;-34
2023/04/17 09:54:45;;;;;;;32.60;24.00;;;12.30;99.90;;;;;;4948281;28;20200;-33
2023/04/17 09:57:12;;;;;;;34.17;23.93;;;12.30;99.90;;;;;;4946215;28;20774;-33
2023/04/17 09:59:41;;;;;;;36.27;26.43;;;12.20;99.90;;;;;;4948184;28;20270;-33
2023/04/17 10:02:13;;;;;;;33.23;25.33;;;12.20;99.90;;;;;;4946879;29;20208;-33
2023/04/17 10:04:41;;;;;;;35.03;25.17;;;12.20;99.90;;;;;;4948287;28;20207;-34
2023/04/17 10:07:12;;;;;;;33.43;24.80;;;12.30;99.90;;;;;;4947088;28;20270;-33
2023/04/17 10:09:40;;;;;;;33.13;24.20;;;12.30;99.90;;;;;;4941404;28;20204;-34
2023/04/17 10:12:16;;;;;;;30.67;22.90;;;12.30;99.90;;;;;;4943822;29;20586;-33
2023/04/17 10:14:51;;;;;;;35.73;24.00;;;12.40;99.90;;;;;;4946576;28;20218;-33
2023/04/17 10:17:33;;;;;;;36.97;26.23;;;12.40;99.90;;;;;;4961350;28;20226;-33
2023/04/17 10:20:18;;;;;;;34.53;24.93;;;12.40;99.90;;;;;;4940636;28;20227;-33
2023/04/17 10:22:53;;;;;;;37.30;25.50;;;12.50;99.90;;;;;;4944919;28;22178;-33
2023/04/17 10:25:30;;;;;;;36.13;25.40;;;12.50;99.90;;;;;;4945000;28;20886;-33
2023/04/17 10:28:01;;;;;;;37.93;26.40;;;12.50;99.90;;;;;;4944901;28;20286;-33
2023/04/17 10:31:06;;;;;;;33.50;25.27;;;12.50;99.90;;;;;;4939036;28;20207;-33
2023/04/17 10:33:53;;;;;;;33.10;24.70;;;12.50;99.90;;;;;;4978537;28;20214;-33
2023/04/17 10:36:39;;;;;;;35.83;24.23;;;12.60;99.90;;;;;;4945130;28;20226;-33
2023/04/17 10:39:17;;;;;;;36.23;26.00;;;12.60;99.90;;;;;;4947316;28;20294;-34
2023/04/17 10:42:04;;;;;;;37.97;26.80;;;12.60;99.90;;;;;;4944092;28;20325;-33
2023/04/17 10:44:40;;;;;;;31.33;23.83;;;12.70;99.90;;;;;;4943045;28;20200;-33
2023/04/17 10:47:17;;;;;;;34.53;24.80;;;12.70;99.90;;;;;;4956193;28;20271;-33
2023/04/17 10:49:47;;;;;;;34.20;24.63;;;12.70;99.90;;;;;;4944693;28;20251;-33
2023/04/17 10:52:44;;;;;;;35.37;25.63;;;12.80;99.90;;;;;;4945831;28;20282;-34
2023/04/17 10:55:19;;;;;;;32.87;24.30;;;12.80;99.90;;;;;;4943623;28;20203;-32
2023/04/17 10:58:03;;;;;;;31.50;23.53;;;12.80;99.90;;;;;;4944553;28;20215;-32
2023/04/17 11:00:48;;;;;;;32.00;25.03;;;13.00;99.90;;;;;;4941471;28;20719;-33
2023/04/17 11:03:21;;;;;;;32.03;25.80;;;13.00;99.90;;;;;;4943996;28;20226;-32
2023/04/17 11:05:50;;;;;;;34.47;24.87;;;13.10;99.90;;;;;;4941494;28;20320;-32
2023/04/17 11:08:21;;;;;;;33.77;25.17;;;13.10;99.90;;;;;;4945907;28;20762;-33
2023/04/17 11:10:59;;;;;;;34.83;25.63;;;13.20;99.90;;;;;;4939582;28;20209;-33
2023/04/17 11:13:31;;;;;;;35.07;24.83;;;13.20;99.90;;;;;;4937114;28;20207;-33
2023/04/17 11:15:58;;;;;;;35.47;26.10;;;13.20;99.90;;;;;;4936757;28;20679;-33
2023/04/17 11:18:25;;;;;;;34.20;25.47;;;13.20;99.90;;;;;;4944801;28;20295;-34
2023/04/17 11:20:56;;;;;;;33.43;26.00;;;13.20;99.90;;;;;;4940587;28;20228;-34
2023/04/17 11:23:32;;;;;;;33.63;24.97;;;13.20;99.90;;;;;;4975361;28;20219;-34
2023/04/17 11:26:00;;;;;;;36.80;26.47;;;13.20;99.90;;;;;;4943520;28;20222;-34
2023/04/17 11:28:30;;;;;;;33.50;26.37;;;13.20;99.90;;;;;;4945311;28;20203;-34
2023/04/17 11:30:59;;;;;;;36.30;27.13;;;13.20;99.90;;;;;;4952087;28;20207;-35
2023/04/17 11:33:36;;;;;;;34.10;25.90;;;13.30;99.90;;;;;;4943908;28;20223;-32
2023/04/17 11:36:05;;;;;;;30.97;24.83;;;13.30;99.90;;;;;;4944541;28;20630;-34
2023/04/17 11:38:33;;;;;;;37.30;24.80;;;13.30;99.90;;;;;;4955027;28;20318;-32
2023/04/17 11:41:04;;;;;;;30.30;24.00;;;13.40;99.90;;;;;;4945404;28;20817;-34
2023/04/17 11:43:36;;;;;;;33.73;24.37;;;13.40;99.90;;;;;;4946858;28;20210;-34
2023/04/17 11:46:04;;;;;;;27.90;21.90;;;13.50;99.90;;;;;;4945439;29;20568;-34
2023/04/17 11:48:33;;;;;;;32.00;24.83;;;13.60;99.90;;;;;;4944745;28;20942;-34
2023/04/17 11:51:04;;;;;;;33.37;24.90;;;13.70;99.90;;;;;;4942466;28;20589;-34
2023/04/17 11:53:45;;;;;;;32.20;24.37;;;13.70;99.90;;;;;;4941616;28;20255;-34
2023/04/17 11:56:18;;;;;;;32.07;24.17;;;13.80;99.90;;;;;;4953659;28;20259;-34
2023/04/17 11:58:52;;;;;;;33.13;24.63;;;13.80;99.90;;;;;;4945155;28;20213;-34
2023/04/17 12:01:24;;;;;;;32.20;24.17;;;13.90;99.90;;;;;;4944774;28;20270;-34
2023/04/17 12:03:55;;;;;;;31.57;23.50;;;14.00;99.90;;;;;;4944017;28;20203;-33
2023/04/17 12:06:23;;;;;;;31.10;24.70;;;14.00;99.90;;;;;;4943222;28;20204;-32
2023/04/17 12:08:52;;;;;;;28.83;23.27;;;14.10;99.90;;;;;;4942023;29;20199;-33
2023/04/17 12:11:30;;;;;;;31.63;25.13;;;14.10;99.90;;;;;;4945080;28;20568;-32
2023/04/17 12:14:00;;;;;;;29.53;24.03;;;14.10;99.90;;;;;;4945743;28;20325;-32
2023/04/17 12:16:28;;;;;;;28.17;22.83;;;14.10;99.90;;;;;;4946094;28;20211;-33
2023/04/17 12:18:58;;;;;;;28.60;22.60;;;14.20;99.90;;;;;;4943567;28;20235;-34
2023/04/17 12:21:31;;;;;;;33.37;24.87;;;14.20;99.90;;;;;;4945018;28;20741;-34
2023/04/17 12:23:59;;;;;;;31.90;23.73;;;14.10;99.90;;;;;;4941699;28;20672;-33
2023/04/17 12:26:28;;;;;;;29.87;24.03;;;14.00;99.90;;;;;;4944896;28;20219;-33
2023/04/17 12:28:56;;;;;;;30.63;22.53;;;14.10;99.90;;;;;;4944731;28;20200;-33
2023/04/17 12:31:28;;;;;;;31.83;23.83;;;14.10;99.90;;;;;;4941179;28;20750;-37
2023/04/17 12:33:57;;;;;;;38.13;24.10;;;14.10;99.90;;;;;;4943677;28;20756;-33
2023/04/17 12:36:27;;;;;;;30.70;23.73;;;14.10;99.90;;;;;;4971816;28;20947;-34
2023/04/17 12:38:56;;;;;;;29.87;22.47;;;14.10;99.90;;;;;;4945889;29;20211;-34
2023/04/17 12:41:25;;;;;;;31.00;24.10;;;14.10;99.90;;;;;;4944078;28;20314;-33
2023/04/17 12:43:58;;;;;;;30.97;24.60;;;14.10;99.90;;;;;;4945820;28;20733;-34
2023/04/17 12:46:29;;;;;;;32.13;24.47;;;14.10;99.90;;;;;;4932736;29;20204;-33